createdAt,value
2023-01-06T00:00:29.716Z,98583.13
2023-01-06T00:02:56.223Z,98582.97
2023-01-06T00:05:22.792Z,98586.19
2023-01-06T00:07:50.484Z,98585.72
2023-01-06T00:10:17.063Z,98582.63
2023-01-06T00:12:47.195Z,98586.38
2023-01-06T00:15:13.766Z,98588.81
2023-01-06T00:17:40.290Z,98594.16
2023-01-06T00:20:07.383Z,98596.56
2023-01-06T00:22:33.944Z,98593.53
2023-01-06T00:25:00.569Z,98594.97
2023-01-06T00:27:27.060Z,98587.19
2023-01-06T00:29:53.588Z,98587.50
2023-01-06T00:32:20.100Z,98587.34
2023-01-06T00:34:46.564Z,98589.28
2023-01-06T00:37:13.350Z,98594.97
2023-01-06T00:39:40.084Z,98598.19
2023-01-06T00:42:06.903Z,98598.84
2023-01-06T00:44:35.153Z,98594.00
2023-01-06T00:47:02.088Z,98592.66
2023-01-06T00:49:28.611Z,98592.03
2023-01-06T00:51:55.169Z,98591.22
2023-01-06T00:54:21.692Z,98585.84
2023-01-06T00:56:50.105Z,98589.91
2023-01-06T00:59:19.924Z,98591.53
2023-01-06T01:01:47.173Z,98587.97
2023-01-06T01:04:14.012Z,98588.59
2023-01-06T01:06:41.677Z,98587.81
2023-01-06T01:09:08.214Z,98589.09
2023-01-06T01:11:53.251Z,98590.41
2023-01-06T01:14:20.232Z,98586.81
2023-01-06T01:16:46.752Z,98589.75
2023-01-06T01:19:13.293Z,98585.00
2023-01-06T01:21:39.811Z,98589.53
2023-01-06T01:24:07.029Z,98596.03
2023-01-06T01:26:33.506Z,98597.84
2023-01-06T01:29:00.699Z,98593.94
2023-01-06T01:31:27.315Z,98588.91
2023-01-06T01:33:53.824Z,98591.66
2023-01-06T01:36:20.499Z,98587.94
2023-01-06T01:38:46.972Z,98592.78
2023-01-06T01:41:16.275Z,98584.34
2023-01-06T01:44:21.767Z,98593.94
2023-01-06T01:46:48.238Z,98591.50
2023-01-06T01:49:24.341Z,98590.69
2023-01-06T01:51:51.342Z,98594.25
2023-01-06T01:54:21.495Z,98589.38
2023-01-06T01:56:49.876Z,98597.06
2023-01-06T01:59:17.831Z,98593.13
2023-01-06T02:01:45.021Z,98594.09
2023-01-06T02:04:11.560Z,98579.13
2023-01-06T02:06:38.045Z,98577.34
2023-01-06T02:09:25.693Z,98575.22
2023-01-06T02:11:52.506Z,98572.31
2023-01-06T02:14:20.928Z,98574.03
2023-01-06T02:16:57.704Z,98562.06
2023-01-06T02:19:43.181Z,98560.75
2023-01-06T02:23:00.615Z,98560.75
2023-01-06T02:25:32.853Z,98556.81
2023-01-06T02:28:14.491Z,98557.63
2023-01-06T02:31:10.253Z,98554.03
2023-01-06T02:33:41.697Z,98544.59
2023-01-06T02:36:20.698Z,98542.81
2023-01-06T02:39:10.851Z,98534.03
2023-01-06T02:42:20.551Z,98537.75
2023-01-06T02:44:58.948Z,98538.75
2023-01-06T02:47:35.171Z,98532.56
2023-01-06T02:50:18.396Z,98529.88
2023-01-06T02:53:06.370Z,98526.53
2023-01-06T02:55:38.070Z,98520.69
2023-01-06T02:58:14.008Z,98509.16
2023-01-06T03:00:43.039Z,98508.25
2023-01-06T03:03:10.964Z,98503.03
2023-01-06T03:05:37.462Z,98497.59
2023-01-06T03:08:09.093Z,98516.31
2023-01-06T03:10:35.583Z,98507.19
2023-01-06T03:13:06.661Z,98502.81
2023-01-06T03:15:33.172Z,98488.00
2023-01-06T03:17:59.642Z,98497.34
2023-01-06T03:20:26.117Z,98481.06
2023-01-06T03:22:52.579Z,98484.03
2023-01-06T03:25:19.054Z,98482.38
2023-01-06T03:27:45.537Z,98476.94
2023-01-06T03:30:12.384Z,98481.47
2023-01-06T03:32:53.413Z,98460.81
2023-01-06T03:35:22.011Z,98460.00
2023-01-06T03:37:59.435Z,98454.63
2023-01-06T03:40:35.724Z,98458.63
2023-01-06T03:43:16.468Z,98450.03
2023-01-06T03:46:01.347Z,98451.53
2023-01-06T03:48:55.504Z,98425.75
2023-01-06T03:51:44.236Z,98416.63
2023-01-06T03:54:35.409Z,98395.25
2023-01-06T03:57:07.871Z,98379.97
2023-01-06T03:59:37.462Z,98377.09
2023-01-06T04:02:05.625Z,98369.44
2023-01-06T04:04:32.088Z,98365.81
2023-01-06T04:06:58.571Z,98353.84
2023-01-06T04:09:25.061Z,98351.72
2023-01-06T04:12:10.236Z,98345.56
2023-01-06T04:14:36.775Z,98340.13
2023-01-06T04:17:03.256Z,98333.63
2023-01-06T04:19:29.725Z,98337.69
2023-01-06T04:21:56.204Z,98322.91
2023-01-06T04:24:22.681Z,98320.53
2023-01-06T04:26:49.161Z,98321.91
2023-01-06T04:29:15.683Z,98319.06
2023-01-06T04:31:42.191Z,98323.38
2023-01-06T04:34:08.761Z,98310.28
2023-01-06T04:36:35.262Z,98316.84
2023-01-06T04:39:01.878Z,98311.50
2023-01-06T04:41:28.403Z,98314.06
2023-01-06T04:43:57.828Z,98318.47
2023-01-06T04:46:24.506Z,98306.59
2023-01-06T04:48:51.225Z,98307.84
2023-01-06T04:51:17.738Z,98310.84
2023-01-06T04:53:44.203Z,98315.63
2023-01-06T04:56:11.587Z,98293.97
2023-01-06T04:58:38.189Z,98291.53
2023-01-06T05:01:06.773Z,98291.53
2023-01-06T05:03:33.497Z,98302.25
2023-01-06T05:06:04.095Z,98292.28
2023-01-06T05:08:31.221Z,98277.53
2023-01-06T05:11:01.620Z,98274.31
2023-01-06T05:13:28.911Z,98284.84
2023-01-06T05:15:55.396Z,98271.22
2023-01-06T05:18:21.852Z,98270.41
2023-01-06T05:20:52.123Z,98268.00
2023-01-06T05:23:18.445Z,98261.19
2023-01-06T05:25:44.932Z,98268.75
2023-01-06T05:28:11.393Z,98256.38
2023-01-06T05:30:37.908Z,98243.38
2023-01-06T05:33:04.383Z,98246.66
2023-01-06T05:35:30.944Z,98250.34
2023-01-06T05:37:57.404Z,98253.75
2023-01-06T05:40:23.954Z,98252.88
2023-01-06T05:42:54.716Z,98260.09
2023-01-06T05:45:21.852Z,98261.31
2023-01-06T05:47:48.358Z,98278.00
2023-01-06T05:50:14.857Z,98279.41
2023-01-06T05:52:41.339Z,98271.09
2023-01-06T05:55:08.271Z,98269.28
2023-01-06T05:57:35.360Z,98261.06
2023-01-06T06:00:05.459Z,98256.22
2023-01-06T06:02:32.020Z,98251.56
2023-01-06T06:04:58.511Z,98253.91
2023-01-06T06:07:25.005Z,98236.63
2023-01-06T06:09:51.482Z,98233.47
2023-01-06T06:12:17.974Z,98228.56
2023-01-06T06:14:44.463Z,98223.50
2023-01-06T06:17:10.967Z,98232.03
2023-01-06T06:19:37.468Z,98218.44
2023-01-06T06:22:04.272Z,98207.97
2023-01-06T06:24:30.748Z,98202.34
2023-01-06T06:26:57.232Z,98199.25
2023-01-06T06:29:23.692Z,98197.72
2023-01-06T06:31:50.212Z,98212.81
2023-01-06T06:34:16.748Z,98211.16
2023-01-06T06:36:43.263Z,98212.78
2023-01-06T06:39:10.040Z,98208.84
2023-01-06T06:41:36.578Z,98203.50
2023-01-06T06:44:03.981Z,98200.94
2023-01-06T06:46:30.755Z,98199.94
2023-01-06T06:48:57.554Z,98196.75
2023-01-06T06:51:24.346Z,98200.13
2023-01-06T06:53:50.940Z,98209.13
2023-01-06T06:56:18.079Z,98206.13
2023-01-06T06:58:44.701Z,98198.75
2023-01-06T07:01:12.789Z,98209.00
2023-01-06T07:03:39.470Z,98204.56
2023-01-06T07:06:07.372Z,98208.88
2023-01-06T07:08:34.159Z,98198.63
2023-01-06T07:11:00.789Z,98199.84
2023-01-06T07:13:27.736Z,98193.19
2023-01-06T07:15:54.267Z,98190.88
2023-01-06T07:18:21.826Z,98182.00
2023-01-06T07:20:49.973Z,98203.00
2023-01-06T07:23:16.873Z,98193.44
2023-01-06T07:25:43.351Z,98199.97
2023-01-06T07:28:09.905Z,98194.59
2023-01-06T07:30:36.517Z,98188.25
2023-01-06T07:33:03.589Z,98191.72
2023-01-06T07:35:30.064Z,98198.97
2023-01-06T07:38:02.428Z,98180.75
2023-01-06T07:40:28.909Z,98193.22
2023-01-06T07:42:55.412Z,98182.84
2023-01-06T07:45:21.936Z,98190.00
2023-01-06T07:47:48.462Z,98180.66
2023-01-06T07:50:15.252Z,98193.78
2023-01-06T07:52:41.730Z,98198.63
2023-01-06T07:55:08.440Z,98194.50
2023-01-06T07:57:35.806Z,98191.94
2023-01-06T08:00:02.398Z,98188.72
2023-01-06T08:02:28.984Z,98191.00
2023-01-06T08:04:55.531Z,98182.72
2023-01-06T08:07:22.068Z,98191.47
2023-01-06T08:09:48.542Z,98172.94
2023-01-06T08:12:15.034Z,98192.41
2023-01-06T08:14:41.544Z,98187.09
2023-01-06T08:17:08.318Z,98200.13
2023-01-06T08:19:34.798Z,98186.78
2023-01-06T08:22:01.280Z,98182.41
2023-01-06T08:24:31.849Z,98183.31
2023-01-06T08:26:59.179Z,98187.69
2023-01-06T08:29:28.702Z,98198.06
2023-01-06T08:32:05.720Z,98189.66
2023-01-06T08:34:36.613Z,98193.22
2023-01-06T08:37:03.126Z,98208.09
2023-01-06T08:39:29.592Z,98205.66
2023-01-06T08:41:56.206Z,98212.59
2023-01-06T08:44:22.682Z,98199.91
2023-01-06T08:46:49.233Z,98196.69
2023-01-06T08:49:15.710Z,98204.75
2023-01-06T08:51:42.259Z,98203.81
2023-01-06T08:54:08.837Z,98206.59
2023-01-06T08:56:35.384Z,98216.19
2023-01-06T08:59:02.644Z,98210.78
2023-01-06T09:01:31.043Z,98202.69
2023-01-06T09:03:58.385Z,98203.75
2023-01-06T09:06:24.948Z,98208.34
2023-01-06T09:08:51.477Z,98205.44
2023-01-06T09:11:18.028Z,98208.69
2023-01-06T09:13:44.909Z,98211.00
2023-01-06T09:16:11.597Z,98214.34
2023-01-06T09:18:38.244Z,98220.22
2023-01-06T09:21:05.204Z,98210.09
2023-01-06T09:23:32.078Z,98221.63
2023-01-06T09:25:58.587Z,98238.56
2023-01-06T09:28:25.192Z,98233.59
2023-01-06T09:30:51.742Z,98231.84
2023-01-06T09:33:18.262Z,98241.09
2023-01-06T09:35:45.105Z,98234.75
2023-01-06T09:38:12.234Z,98235.81
2023-01-06T09:40:44.551Z,98246.88
2023-01-06T09:43:43.011Z,98252.41
2023-01-06T09:46:09.603Z,98258.09
2023-01-06T09:48:42.332Z,98245.13
2023-01-06T09:51:09.225Z,98253.78
2023-01-06T09:53:41.022Z,98247.44
2023-01-06T09:56:10.126Z,98261.63
2023-01-06T09:58:39.342Z,98260.81
2023-01-06T10:01:11.273Z,98268.88
2023-01-06T10:03:37.818Z,98270.50
2023-01-06T10:06:28.141Z,98278.06
2023-01-06T10:09:08.571Z,98280.59
2023-01-06T10:11:46.823Z,98282.75
2023-01-06T10:14:25.139Z,98274.59
2023-01-06T10:17:01.403Z,98277.22
2023-01-06T10:19:55.797Z,98277.91
2023-01-06T10:23:10.334Z,98275.00
2023-01-06T10:25:48.458Z,98275.59
2023-01-06T10:28:38.653Z,98270.22
2023-01-06T10:31:11.321Z,98277.69
2023-01-06T10:33:40.799Z,98272.06
2023-01-06T10:36:14.037Z,98274.03
2023-01-06T10:38:42.509Z,98269.63
2023-01-06T10:41:20.140Z,98274.63
2023-01-06T10:43:46.629Z,98280.84
2023-01-06T10:46:13.124Z,98279.44
2023-01-06T10:48:39.625Z,98285.69
2023-01-06T10:51:36.093Z,98292.16
2023-01-06T10:54:05.875Z,98301.81
2023-01-06T10:56:32.364Z,98296.50
2023-01-06T10:59:02.934Z,98298.13
2023-01-06T11:01:30.120Z,98302.72
2023-01-06T11:04:13.050Z,98294.91
2023-01-06T11:06:42.937Z,98318.19
2023-01-06T11:09:29.080Z,98313.81
2023-01-06T11:11:56.600Z,98305.72
2023-01-06T11:14:26.516Z,98314.28
2023-01-06T11:16:57.604Z,98303.78
2023-01-06T11:19:32.750Z,98299.72
2023-01-06T11:21:59.224Z,98311.03
2023-01-06T11:24:26.325Z,98307.03
2023-01-06T11:26:54.608Z,98318.09
2023-01-06T11:29:26.687Z,98325.69
2023-01-06T11:31:53.223Z,98325.78
2023-01-06T11:34:22.405Z,98333.41
2023-01-06T11:36:48.879Z,98323.25
2023-01-06T11:39:21.660Z,98337.66
2023-01-06T11:41:49.217Z,98329.84
2023-01-06T11:44:31.550Z,98332.53
2023-01-06T11:47:00.650Z,98336.31
2023-01-06T11:49:33.778Z,98335.16
2023-01-06T11:52:02.818Z,98331.25
2023-01-06T11:54:39.394Z,98313.16
2023-01-06T11:57:12.946Z,98317.09
2023-01-06T11:59:56.772Z,98319.53
2023-01-06T12:02:27.072Z,98314.91
2023-01-06T12:04:53.563Z,98318.13
2023-01-06T12:07:38.069Z,98312.50
2023-01-06T12:10:13.635Z,98314.13
2023-01-06T12:12:40.118Z,98320.13
2023-01-06T12:15:12.563Z,98315.28
2023-01-06T12:17:51.145Z,98303.25
2023-01-06T12:20:17.596Z,98296.16
2023-01-06T12:22:48.564Z,98308.03
2023-01-06T12:25:18.893Z,98295.81
2023-01-06T12:27:52.498Z,98284.63
2023-01-06T12:30:41.025Z,98286.25
2023-01-06T12:33:32.913Z,98280.38
2023-01-06T12:36:04.901Z,98288.91
2023-01-06T12:38:55.496Z,98282.81
2023-01-06T12:41:27.802Z,98285.09
2023-01-06T12:44:46.888Z,98288.44
2023-01-06T12:47:19.451Z,98283.72
2023-01-06T12:49:56.202Z,98279.66
2023-01-06T12:52:30.186Z,98275.41
2023-01-06T12:54:57.265Z,98271.94
2023-01-06T12:57:50.556Z,98280.59
2023-01-06T13:00:32.386Z,98281.75
2023-01-06T13:03:10.040Z,98283.59
2023-01-06T13:05:48.776Z,98287.28
2023-01-06T13:08:37.086Z,98290.78
2023-01-06T13:11:40.632Z,98292.38
2023-01-06T13:14:22.731Z,98287.41
2023-01-06T13:17:08.043Z,98286.72
2023-01-06T13:19:49.816Z,98287.06
2023-01-06T13:22:19.659Z,98292.84
2023-01-06T13:25:25.195Z,98289.03
2023-01-06T13:28:16.629Z,98289.50
2023-01-06T13:30:46.728Z,98296.66
2023-01-06T13:33:41.096Z,98303.00
2023-01-06T13:36:19.729Z,98297.56
2023-01-06T13:39:07.562Z,98289.59
2023-01-06T13:41:36.130Z,98290.53
2023-01-06T13:44:03.338Z,98291.81
2023-01-06T13:46:29.887Z,98293.06
2023-01-06T13:48:59.287Z,98295.47
2023-01-06T13:51:29.111Z,98288.44
2023-01-06T13:53:56.507Z,98292.81
2023-01-06T13:56:24.646Z,98293.63
2023-01-06T13:58:51.634Z,98300.78
2023-01-06T14:01:21.145Z,98292.16
2023-01-06T14:03:48.965Z,98291.78
2023-01-06T14:06:21.384Z,98290.88
2023-01-06T14:09:00.787Z,98291.69
2023-01-06T14:11:37.750Z,98293.53
2023-01-06T14:14:06.066Z,98301.50
2023-01-06T14:16:46.960Z,98298.63
2023-01-06T14:19:20.735Z,98303.09
2023-01-06T14:21:48.261Z,98301.84
2023-01-06T14:24:35.920Z,98308.53
2023-01-06T14:27:07.024Z,98310.50
2023-01-06T14:29:39.662Z,98298.59
2023-01-06T14:32:06.999Z,98308.75
2023-01-06T14:34:33.499Z,98312.31
2023-01-06T14:36:59.974Z,98310.47
2023-01-06T14:39:26.624Z,98306.31
2023-01-06T14:41:57.073Z,98307.59
2023-01-06T14:44:37.691Z,98297.38
2023-01-06T14:47:11.395Z,98301.63
2023-01-06T14:49:46.295Z,98299.56
2023-01-06T14:52:21.843Z,98301.50
2023-01-06T14:54:48.506Z,98300.25
2023-01-06T14:57:26.512Z,98309.91
2023-01-06T15:00:08.305Z,98319.00
2023-01-06T15:02:35.184Z,98310.00
2023-01-06T15:05:01.843Z,98322.59
2023-01-06T15:07:28.325Z,98323.94
2023-01-06T15:10:08.930Z,98330.38
2023-01-06T15:12:35.422Z,98331.94
2023-01-06T15:15:27.663Z,98341.41
2023-01-06T15:17:55.043Z,98337.81
2023-01-06T15:20:32.955Z,98344.72
2023-01-06T15:23:00.400Z,98355.50
2023-01-06T15:25:28.154Z,98350.00
2023-01-06T15:27:55.681Z,98353.59
2023-01-06T15:30:34.931Z,98362.81
2023-01-06T15:33:01.440Z,98367.97
2023-01-06T15:35:29.581Z,98386.16
2023-01-06T15:38:03.461Z,98386.09
2023-01-06T15:40:30.010Z,98378.94
2023-01-06T15:42:56.620Z,98376.78
2023-01-06T15:45:32.328Z,98392.50
2023-01-06T15:48:00.861Z,98393.09
2023-01-06T15:50:28.603Z,98384.47
2023-01-06T15:53:04.097Z,98382.50
2023-01-06T15:55:35.249Z,98376.16
2023-01-06T15:58:06.476Z,98388.31
2023-01-06T16:00:41.695Z,98393.03
2023-01-06T16:03:20.521Z,98397.91
2023-01-06T16:05:51.070Z,98405.19
2023-01-06T16:08:24.940Z,98396.56
2023-01-06T16:11:11.484Z,98405.13
2023-01-06T16:13:37.946Z,98402.19
2023-01-06T16:16:31.080Z,98398.44
2023-01-06T16:18:57.569Z,98397.69
2023-01-06T16:21:25.060Z,98393.47
2023-01-06T16:23:58.404Z,98406.94
2023-01-06T16:26:26.921Z,98406.16
2023-01-06T16:28:54.712Z,98408.13
2023-01-06T16:31:38.013Z,98404.41
2023-01-06T16:34:24.137Z,98407.34
2023-01-06T16:36:51.752Z,98406.03
2023-01-06T16:39:18.303Z,98418.22
2023-01-06T16:41:59.802Z,98427.63
2023-01-06T16:44:30.407Z,98433.94
2023-01-06T16:46:57.448Z,98429.91
2023-01-06T16:49:23.972Z,98440.59
2023-01-06T16:51:50.644Z,98435.44
2023-01-06T16:54:20.180Z,98437.66
2023-01-06T16:56:46.784Z,98436.88
2023-01-06T16:59:14.872Z,98445.63
2023-01-06T17:01:42.141Z,98446.13
2023-01-06T17:04:10.980Z,98447.13
2023-01-06T17:06:38.096Z,98460.22
2023-01-06T17:09:15.135Z,98458.59
2023-01-06T17:11:41.617Z,98458.59
2023-01-06T17:14:15.932Z,98461.19
2023-01-06T17:16:42.618Z,98459.44
2023-01-06T17:19:22.267Z,98457.66
2023-01-06T17:21:49.808Z,98449.03
2023-01-06T17:24:26.017Z,98451.63
2023-01-06T17:27:11.759Z,98447.44
2023-01-06T17:29:38.286Z,98451.31
2023-01-06T17:32:05.867Z,98451.81
2023-01-06T17:34:33.678Z,98455.53
2023-01-06T17:37:06.289Z,98466.25
2023-01-06T17:39:37.294Z,98468.69
2023-01-06T17:42:12.899Z,98462.19
2023-01-06T17:44:48.511Z,98467.38
2023-01-06T17:47:15.118Z,98473.06
2023-01-06T17:49:41.729Z,98472.25
2023-01-06T17:52:24.582Z,98486.22
2023-01-06T17:55:13.594Z,98489.94
2023-01-06T17:57:41.219Z,98488.28
2023-01-06T18:00:34.445Z,98490.25
2023-01-06T18:03:02.661Z,98482.25
2023-01-06T18:05:30.639Z,98484.84
2023-01-06T18:08:05.977Z,98493.81
2023-01-06T18:10:36.166Z,98490.69
2023-01-06T18:13:22.932Z,98487.28
2023-01-06T18:15:56.959Z,98485.81
2023-01-06T18:18:26.963Z,98488.22
2023-01-06T18:20:53.827Z,98488.81
2023-01-06T18:23:22.508Z,98488.16
2023-01-06T18:25:50.955Z,98483.09
2023-01-06T18:28:18.160Z,98482.13
2023-01-06T18:30:46.351Z,98493.34
2023-01-06T18:33:14.318Z,98490.75
2023-01-06T18:35:40.862Z,98485.66
2023-01-06T18:38:07.353Z,98476.72
2023-01-06T18:40:33.906Z,98486.53
2023-01-06T18:43:00.382Z,98482.13
2023-01-06T18:45:27.549Z,98472.97
2023-01-06T18:47:57.196Z,98481.16
2023-01-06T18:50:31.373Z,98486.78
2023-01-06T18:53:05.340Z,98485.81
2023-01-06T18:55:41.682Z,98479.31
2023-01-06T18:58:15.926Z,98474.09
2023-01-06T19:00:45.930Z,98476.34
2023-01-06T19:03:36.217Z,98482.63
2023-01-06T19:06:08.395Z,98477.19
2023-01-06T19:08:35.604Z,98474.66
2023-01-06T19:11:02.652Z,98466.06
2023-01-06T19:13:29.261Z,98471.59
2023-01-06T19:16:22.296Z,98462.97
2023-01-06T19:18:48.799Z,98466.06
2023-01-06T19:21:15.335Z,98461.78
2023-01-06T19:23:41.858Z,98458.00
2023-01-06T19:26:33.966Z,98460.28
2023-01-06T19:29:01.855Z,98451.91
2023-01-06T19:31:30.486Z,98467.00
2023-01-06T19:33:58.873Z,98462.78
2023-01-06T19:36:42.204Z,98466.25
2023-01-06T19:39:19.376Z,98458.53
2023-01-06T19:41:45.898Z,98459.84
2023-01-06T19:44:13.429Z,98462.00
2023-01-06T19:46:43.944Z,98467.00
2023-01-06T19:49:17.509Z,98460.91
2023-01-06T19:51:44.013Z,98476.13
2023-01-06T19:54:10.335Z,98466.00
2023-01-06T19:56:41.136Z,98463.72
2023-01-06T19:59:24.356Z,98459.19
2023-01-06T20:02:07.144Z,98461.00
2023-01-06T20:04:33.788Z,98464.63
2023-01-06T20:07:02.090Z,98463.66
2023-01-06T20:09:30.086Z,98465.44
2023-01-06T20:11:56.769Z,98467.09
2023-01-06T20:14:23.244Z,98469.19
2023-01-06T20:16:49.745Z,98469.66
2023-01-06T20:19:16.262Z,98466.72
2023-01-06T20:21:43.249Z,98459.75
2023-01-06T20:24:10.527Z,98473.56
2023-01-06T20:26:37.285Z,98476.78
2023-01-06T20:29:04.412Z,98476.94
2023-01-06T20:31:31.031Z,98476.28
2023-01-06T20:33:57.661Z,98474.97
2023-01-06T20:36:24.170Z,98468.84
2023-01-06T20:38:50.641Z,98472.91
2023-01-06T20:41:17.144Z,98471.81
2023-01-06T20:43:43.600Z,98464.47
2023-01-06T20:46:10.220Z,98469.06
2023-01-06T20:48:37.741Z,98475.03
2023-01-06T20:51:04.388Z,98482.22
2023-01-06T20:53:30.905Z,98479.38
2023-01-06T20:55:57.427Z,98479.69
2023-01-06T20:58:24.423Z,98471.69
2023-01-06T21:00:51.021Z,98478.56
2023-01-06T21:03:17.581Z,98479.09
2023-01-06T21:05:44.056Z,98475.78
2023-01-06T21:08:10.533Z,98473.69
2023-01-06T21:10:37.646Z,98478.31
2023-01-06T21:13:04.367Z,98480.72
2023-01-06T21:15:30.845Z,98474.66
2023-01-06T21:17:57.378Z,98482.00
2023-01-06T21:20:23.885Z,98487.06
2023-01-06T21:22:50.344Z,98489.16
2023-01-06T21:25:19.538Z,98480.94
2023-01-06T21:27:46.120Z,98493.31
2023-01-06T21:30:13.026Z,98483.75
2023-01-06T21:32:39.541Z,98483.16
2023-01-06T21:35:06.549Z,98469.59
2023-01-06T21:37:33.219Z,98465.19
2023-01-06T21:39:59.861Z,98463.78
2023-01-06T21:42:44.803Z,98476.59
2023-01-06T21:45:11.378Z,98476.09
2023-01-06T21:47:37.859Z,98472.84
2023-01-06T21:50:05.327Z,98474.03
2023-01-06T21:52:32.011Z,98474.03
2023-01-06T21:54:59.153Z,98474.22
2023-01-06T21:57:25.770Z,98476.50
2023-01-06T21:59:52.229Z,98471.16
2023-01-06T22:02:18.900Z,98475.47
2023-01-06T22:04:45.446Z,98484.13
2023-01-06T22:07:11.980Z,98483.50
2023-01-06T22:09:39.074Z,98488.38
2023-01-06T22:12:05.860Z,98486.75
2023-01-06T22:14:32.353Z,98490.66
2023-01-06T22:17:00.684Z,98484.28
2023-01-06T22:19:27.709Z,98496.53
2023-01-06T22:21:54.187Z,98486.09
2023-01-06T22:24:20.671Z,98486.75
2023-01-06T22:26:47.152Z,98489.16
2023-01-06T22:29:13.602Z,98487.53
2023-01-06T22:31:40.094Z,98491.63
2023-01-06T22:34:06.939Z,98487.75
2023-01-06T22:36:33.693Z,98494.09
2023-01-06T22:39:00.152Z,98495.72
2023-01-06T22:41:26.682Z,98496.19
2023-01-06T22:43:53.215Z,98500.59
2023-01-06T22:46:19.748Z,98507.44
2023-01-06T22:48:46.251Z,98498.97
2023-01-06T22:51:12.714Z,98492.31
2023-01-06T22:53:39.209Z,98497.38
2023-01-06T22:56:07.939Z,98494.56
2023-01-06T22:58:36.752Z,98500.09
2023-01-06T23:01:03.519Z,98494.59
2023-01-06T23:03:30.103Z,98501.31
2023-01-06T23:06:04.875Z,98505.22
2023-01-06T23:08:32.503Z,98498.06
2023-01-06T23:11:00.440Z,98497.56
2023-01-06T23:13:27.225Z,98511.56
2023-01-06T23:16:08.342Z,98508.16
2023-01-06T23:18:36.783Z,98514.00
2023-01-06T23:21:08.053Z,98520.03
2023-01-06T23:23:35.233Z,98510.59
2023-01-06T23:26:15.954Z,98522.63
2023-01-06T23:28:42.534Z,98520.03
2023-01-06T23:31:17.313Z,98519.88
2023-01-06T23:33:46.327Z,98506.72
2023-01-06T23:36:14.524Z,98515.16
2023-01-06T23:38:41.048Z,98509.28
2023-01-06T23:41:12.577Z,98508.00
2023-01-06T23:43:39.202Z,98507.84
2023-01-06T23:46:07.742Z,98513.38
2023-01-06T23:48:34.433Z,98504.13
2023-01-06T23:51:00.954Z,98514.84
2023-01-06T23:53:27.847Z,98522.97
2023-01-06T23:55:58.964Z,98508.66
2023-01-06T23:58:26.020Z,98515.81
